sensor_id;sensor_type;location;lat;lon;timestamp;temperature;humidity
10149;DHT22;5115;50.920;6.376;2023-12-29T00:01:21;11.50;99.90
10149;DHT22;5115;50.920;6.376;2023-12-29T00:03:47;11.50;99.90
10149;DHT22;5115;50.920;6.376;2023-12-29T00:06:12;11.50;99.90
10149;DHT22;5115;50.920;6.376;2023-12-29T00:08:38;11.50;99.90
10149;DHT22;5115;50.920;6.376;2023-12-29T00:11:03;11.50;99.90
10149;DHT22;5115;50.920;6.376;2023-12-29T00:13:30;11.50;99.90
10149;DHT22;5115;50.920;6.376;2023-12-29T00:15:55;11.40;99.90
10149;DHT22;5115;50.920;6.376;2023-12-29T00:18:21;11.30;99.90
10149;DHT22;5115;50.920;6.376;2023-12-29T00:20:47;11.40;99.90
10149;DHT22;5115;50.920;6.376;2023-12-29T00:23:13;11.40;99.90
10149;DHT22;5115;50.920;6.376;2023-12-29T00:25:39;11.40;99.90
10149;DHT22;5115;50.920;6.376;2023-12-29T00:28:05;11.40;99.90
10149;DHT22;5115;50.920;6.376;2023-12-29T00:30:31;11.40;99.90
10149;DHT22;5115;50.920;6.376;2023-12-29T00:32:57;11.50;99.90
10149;DHT22;5115;50.920;6.376;2023-12-29T00:35:22;11.40;99.90
10149;DHT22;5115;50.920;6.376;2023-12-29T00:37:49;11.30;99.90
10149;DHT22;5115;50.920;6.376;2023-12-29T00:40:15;11.30;99.90
10149;DHT22;5115;50.920;6.376;2023-12-29T00:42:40;11.30;99.90
10149;DHT22;5115;50.920;6.376;2023-12-29T00:45:06;11.40;99.90
10149;DHT22;5115;50.920;6.376;2023-12-29T00:47:32;11.40;99.90
10149;DHT22;5115;50.920;6.376;2023-12-29T00:49:57;11.30;99.90
10149;DHT22;5115;50.920;6.376;2023-12-29T00:52:23;11.30;99.90
10149;DHT22;5115;50.920;6.376;2023-12-29T00:54:48;11.30;99.90
10149;DHT22;5115;50.920;6.376;2023-12-29T00:57:14;11.30;99.90
10149;DHT22;5115;50.920;6.376;2023-12-29T00:59:41;11.30;99.90
10149;DHT22;5115;50.920;6.376;2023-12-29T01:02:06;11.30;99.90
10149;DHT22;5115;50.920;6.376;2023-12-29T01:04:33;11.30;99.90
10149;DHT22;5115;50.920;6.376;2023-12-29T01:06:59;11.20;99.90
10149;DHT22;5115;50.920;6.376;2023-12-29T01:09:26;11.10;99.90
10149;DHT22;5115;50.920;6.376;2023-12-29T01:11:52;11.10;99.90
10149;DHT22;5115;50.920;6.376;2023-12-29T01:14:17;11.20;99.90
10149;DHT22;5115;50.920;6.376;2023-12-29T01:16:43;11.20;99.90
10149;DHT22;5115;50.920;6.376;2023-12-29T01:19:08;11.20;99.90
10149;DHT22;5115;50.920;6.376;2023-12-29T01:21:37;11.10;99.90
10149;DHT22;5115;50.920;6.376;2023-12-29T01:24:03;11.20;99.90
10149;DHT22;5115;50.920;6.376;2023-12-29T01:26:30;11.20;99.90
10149;DHT22;5115;50.920;6.376;2023-12-29T01:28:55;11.10;99.90
10149;DHT22;5115;50.920;6.376;2023-12-29T01:31:22;11.20;99.90
10149;DHT22;5115;50.920;6.376;2023-12-29T01:33:47;11.20;99.90
10149;DHT22;5115;50.920;6.376;2023-12-29T01:36:19;11.10;99.90
10149;DHT22;5115;50.920;6.376;2023-12-29T01:38:45;11.10;99.90
10149;DHT22;5115;50.920;6.376;2023-12-29T01:41:10;11.10;99.90
10149;DHT22;5115;50.920;6.376;2023-12-29T01:43:36;11.20;99.90
10149;DHT22;5115;50.920;6.376;2023-12-29T01:46:01;11.20;99.90
10149;DHT22;5115;50.920;6.376;2023-12-29T01:48:27;11.10;99.90
10149;DHT22;5115;50.920;6.376;2023-12-29T01:50:53;11.10;99.90
10149;DHT22;5115;50.920;6.376;2023-12-29T01:53:20;11.00;99.90
10149;DHT22;5115;50.920;6.376;2023-12-29T01:55:46;11.10;99.90
10149;DHT22;5115;50.920;6.376;2023-12-29T01:58:12;11.10;99.90
10149;DHT22;5115;50.920;6.376;2023-12-29T02:00:38;11.10;99.90
10149;DHT22;5115;50.920;6.376;2023-12-29T02:03:04;11.00;99.90
10149;DHT22;5115;50.920;6.376;2023-12-29T02:05:30;11.00;99.90
10149;DHT22;5115;50.920;6.376;2023-12-29T02:07:58;11.10;99.90
10149;DHT22;5115;50.920;6.376;2023-12-29T02:10:24;11.00;99.90
10149;DHT22;5115;50.920;6.376;2023-12-29T02:12:50;11.10;99.90
10149;DHT22;5115;50.920;6.376;2023-12-29T02:15:16;11.00;99.90
10149;DHT22;5115;50.920;6.376;2023-12-29T02:17:46;11.00;99.90
10149;DHT22;5115;50.920;6.376;2023-12-29T02:20:13;11.10;99.90
10149;DHT22;5115;50.920;6.376;2023-12-29T02:22:38;11.10;99.90
10149;DHT22;5115;50.920;6.376;2023-12-29T02:25:05;11.10;99.90
10149;DHT22;5115;50.920;6.376;2023-12-29T02:27:41;11.10;99.90
10149;DHT22;5115;50.920;6.376;2023-12-29T02:30:09;11.10;99.90
10149;DHT22;5115;50.920;6.376;2023-12-29T02:32:40;11.10;99.90
10149;DHT22;5115;50.920;6.376;2023-12-29T02:35:10;11.00;99.90
10149;DHT22;5115;50.920;6.376;2023-12-29T02:37:37;11.00;99.90
10149;DHT22;5115;50.920;6.376;2023-12-29T02:40:04;10.90;99.90
10149;DHT22;5115;50.920;6.376;2023-12-29T02:42:30;10.90;99.90
10149;DHT22;5115;50.920;6.376;2023-12-29T02:44:56;10.90;99.90
10149;DHT22;5115;50.920;6.376;2023-12-29T02:47:21;10.90;99.90
10149;DHT22;5115;50.920;6.376;2023-12-29T02:49:47;10.90;99.90
10149;DHT22;5115;50.920;6.376;2023-12-29T02:52:14;10.90;99.90
10149;DHT22;5115;50.920;6.376;2023-12-29T02:54:40;11.00;99.90
10149;DHT22;5115;50.920;6.376;2023-12-29T02:57:05;11.00;99.90
10149;DHT22;5115;50.920;6.376;2023-12-29T02:59:31;11.10;99.90
10149;DHT22;5115;50.920;6.376;2023-12-29T03:01:56;11.10;99.90
10149;DHT22;5115;50.920;6.376;2023-12-29T03:04:22;11.10;99.90
10149;DHT22;5115;50.920;6.376;2023-12-29T03:06:48;11.10;99.90
10149;DHT22;5115;50.920;6.376;2023-12-29T03:09:13;11.10;99.90
10149;DHT22;5115;50.920;6.376;2023-12-29T03:11:39;11.00;99.90
10149;DHT22;5115;50.920;6.376;2023-12-29T03:14:04;11.00;99.90
10149;DHT22;5115;50.920;6.376;2023-12-29T03:16:30;11.00;99.90
10149;DHT22;5115;50.920;6.376;2023-12-29T03:18:55;11.00;99.90
10149;DHT22;5115;50.920;6.376;2023-12-29T03:21:21;11.00;99.90
10149;DHT22;5115;50.920;6.376;2023-12-29T03:23:47;11.10;99.90
10149;DHT22;5115;50.920;6.376;2023-12-29T03:26:12;11.00;99.90
10149;DHT22;5115;50.920;6.376;2023-12-29T03:28:38;11.00;99.90
10149;DHT22;5115;50.920;6.376;2023-12-29T03:31:03;11.00;99.90
10149;DHT22;5115;50.920;6.376;2023-12-29T03:33:30;11.00;99.90
10149;DHT22;5115;50.920;6.376;2023-12-29T03:35:55;10.90;99.90
10149;DHT22;5115;50.920;6.376;2023-12-29T03:38:21;11.00;99.90
10149;DHT22;5115;50.920;6.376;2023-12-29T03:40:46;10.90;99.90
10149;DHT22;5115;50.920;6.376;2023-12-29T03:43:12;10.90;99.90
10149;DHT22;5115;50.920;6.376;2023-12-29T03:45:37;10.90;99.90
10149;DHT22;5115;50.920;6.376;2023-12-29T03:48:03;10.90;99.90
10149;DHT22;5115;50.920;6.376;2023-12-29T03:50:28;11.00;99.90
10149;DHT22;5115;50.920;6.376;2023-12-29T03:52:54;11.00;99.90
10149;DHT22;5115;50.920;6.376;2023-12-29T03:55:19;10.90;99.90
10149;DHT22;5115;50.920;6.376;2023-12-29T03:57:45;11.10;99.90
10149;DHT22;5115;50.920;6.376;2023-12-29T04:00:13;11.10;99.90
10149;DHT22;5115;50.920;6.376;2023-12-29T04:02:38;11.30;99.90
10149;DHT22;5115;50.920;6.376;2023-12-29T04:05:05;11.20;99.90
10149;DHT22;5115;50.920;6.376;2023-12-29T04:07:31;11.40;99.90
10149;DHT22;5115;50.920;6.376;2023-12-29T04:09:57;11.40;99.90
10149;DHT22;5115;50.920;6.376;2023-12-29T04:12:22;11.40;99.90
10149;DHT22;5115;50.920;6.376;2023-12-29T04:14:48;11.60;99.90
10149;DHT22;5115;50.920;6.376;2023-12-29T04:17:13;11.30;99.90
10149;DHT22;5115;50.920;6.376;2023-12-29T04:19:41;11.40;99.90
10149;DHT22;5115;50.920;6.376;2023-12-29T04:22:07;11.50;99.90
10149;DHT22;5115;50.920;6.376;2023-12-29T04:24:33;11.40;99.90
10149;DHT22;5115;50.920;6.376;2023-12-29T04:26:58;11.50;99.90
10149;DHT22;5115;50.920;6.376;2023-12-29T04:29:24;11.50;99.90
10149;DHT22;5115;50.920;6.376;2023-12-29T04:31:50;11.50;99.90
10149;DHT22;5115;50.920;6.376;2023-12-29T04:34:15;11.50;99.90
10149;DHT22;5115;50.920;6.376;2023-12-29T04:36:42;11.50;99.90
10149;DHT22;5115;50.920;6.376;2023-12-29T04:39:08;11.50;99.90
10149;DHT22;5115;50.920;6.376;2023-12-29T04:41:36;11.50;99.90
10149;DHT22;5115;50.920;6.376;2023-12-29T04:44:02;11.50;99.90
10149;DHT22;5115;50.920;6.376;2023-12-29T04:46:27;11.50;99.90
10149;DHT22;5115;50.920;6.376;2023-12-29T04:48:53;11.50;99.90
10149;DHT22;5115;50.920;6.376;2023-12-29T04:51:19;11.50;99.90
10149;DHT22;5115;50.920;6.376;2023-12-29T04:53:45;11.40;99.90
10149;DHT22;5115;50.920;6.376;2023-12-29T04:56:10;11.40;99.90
10149;DHT22;5115;50.920;6.376;2023-12-29T04:58:36;11.40;99.90
10149;DHT22;5115;50.920;6.376;2023-12-29T05:01:01;11.40;99.90
10149;DHT22;5115;50.920;6.376;2023-12-29T05:03:27;11.40;99.90
10149;DHT22;5115;50.920;6.376;2023-12-29T05:05:52;11.40;99.90
10149;DHT22;5115;50.920;6.376;2023-12-29T05:08:18;11.40;99.90
10149;DHT22;5115;50.920;6.376;2023-12-29T05:10:43;11.30;99.90
10149;DHT22;5115;50.920;6.376;2023-12-29T05:13:09;11.30;99.90
10149;DHT22;5115;50.920;6.376;2023-12-29T05:15:34;11.30;99.90
10149;DHT22;5115;50.920;6.376;2023-12-29T05:18:00;11.30;99.90
10149;DHT22;5115;50.920;6.376;2023-12-29T05:20:26;11.30;99.90
10149;DHT22;5115;50.920;6.376;2023-12-29T05:22:52;11.30;99.90
10149;DHT22;5115;50.920;6.376;2023-12-29T05:25:17;11.30;99.90
10149;DHT22;5115;50.920;6.376;2023-12-29T05:27:43;11.20;99.90
10149;DHT22;5115;50.920;6.376;2023-12-29T05:30:09;11.20;99.90
10149;DHT22;5115;50.920;6.376;2023-12-29T05:32:34;11.60;99.90
10149;DHT22;5115;50.920;6.376;2023-12-29T05:35:00;11.20;99.90
10149;DHT22;5115;50.920;6.376;2023-12-29T05:37:25;11.20;99.90
10149;DHT22;5115;50.920;6.376;2023-12-29T05:39:51;11.20;99.90
10149;DHT22;5115;50.920;6.376;2023-12-29T05:42:16;11.20;99.90
10149;DHT22;5115;50.920;6.376;2023-12-29T05:44:42;11.20;99.90
10149;DHT22;5115;50.920;6.376;2023-12-29T05:47:07;11.20;99.90
10149;DHT22;5115;50.920;6.376;2023-12-29T05:49:33;11.30;99.90
10149;DHT22;5115;50.920;6.376;2023-12-29T05:52:05;11.20;99.90
10149;DHT22;5115;50.920;6.376;2023-12-29T05:54:31;11.20;99.90
10149;DHT22;5115;50.920;6.376;2023-12-29T05:56:56;11.20;99.90
10149;DHT22;5115;50.920;6.376;2023-12-29T05:59:22;11.10;99.90
10149;DHT22;5115;50.920;6.376;2023-12-29T06:01:47;11.10;99.90
10149;DHT22;5115;50.920;6.376;2023-12-29T06:04:13;11.10;99.90
10149;DHT22;5115;50.920;6.376;2023-12-29T06:06:38;11.10;99.90
10149;DHT22;5115;50.920;6.376;2023-12-29T06:09:04;11.10;99.90
10149;DHT22;5115;50.920;6.376;2023-12-29T06:11:33;11.10;99.90
10149;DHT22;5115;50.920;6.376;2023-12-29T06:14:00;11.80;99.90
10149;DHT22;5115;50.920;6.376;2023-12-29T06:16:26;11.30;99.90
10149;DHT22;5115;50.920;6.376;2023-12-29T06:18:52;11.30;99.90
10149;DHT22;5115;50.920;6.376;2023-12-29T06:21:18;11.10;99.90
10149;DHT22;5115;50.920;6.376;2023-12-29T06:23:44;11.10;99.90
10149;DHT22;5115;50.920;6.376;2023-12-29T06:26:16;11.10;99.90
10149;DHT22;5115;50.920;6.376;2023-12-29T06:28:42;11.00;99.90
10149;DHT22;5115;50.920;6.376;2023-12-29T06:31:08;11.00;99.90
10149;DHT22;5115;50.920;6.376;2023-12-29T06:33:33;11.00;99.90
10149;DHT22;5115;50.920;6.376;2023-12-29T06:35:59;11.00;99.90
10149;DHT22;5115;50.920;6.376;2023-12-29T06:38:25;11.00;99.90
10149;DHT22;5115;50.920;6.376;2023-12-29T06:40:50;11.00;99.90
10149;DHT22;5115;50.920;6.376;2023-12-29T06:43:16;11.00;99.90
10149;DHT22;5115;50.920;6.376;2023-12-29T06:45:41;11.10;99.90
10149;DHT22;5115;50.920;6.376;2023-12-29T06:48:07;11.00;99.90
10149;DHT22;5115;50.920;6.376;2023-12-29T06:50:33;11.00;99.90
10149;DHT22;5115;50.920;6.376;2023-12-29T06:52:58;11.00;99.90
10149;DHT22;5115;50.920;6.376;2023-12-29T06:55:25;11.10;99.90
10149;DHT22;5115;50.920;6.376;2023-12-29T06:57:51;11.10;99.90
10149;DHT22;5115;50.920;6.376;2023-12-29T07:00:16;11.30;99.90
10149;DHT22;5115;50.920;6.376;2023-12-29T07:02:42;10.40;99.90
10149;DHT22;5115;50.920;6.376;2023-12-29T07:05:08;11.10;99.90
10149;DHT22;5115;50.920;6.376;2023-12-29T07:07:36;11.10;99.90
10149;DHT22;5115;50.920;6.376;2023-12-29T07:10:04;11.00;99.90
10149;DHT22;5115;50.920;6.376;2023-12-29T07:12:31;11.00;99.90
10149;DHT22;5115;50.920;6.376;2023-12-29T07:14:57;11.10;99.90
10149;DHT22;5115;50.920;6.376;2023-12-29T07:17:24;11.10;99.90
10149;DHT22;5115;50.920;6.376;2023-12-29T07:19:49;11.10;99.90
10149;DHT22;5115;50.920;6.376;2023-12-29T07:22:15;11.10;99.90
10149;DHT22;5115;50.920;6.376;2023-12-29T07:24:41;11.00;99.90
10149;DHT22;5115;50.920;6.376;2023-12-29T07:27:06;11.10;99.90
10149;DHT22;5115;50.920;6.376;2023-12-29T07:29:33;11.70;99.90
10149;DHT22;5115;50.920;6.376;2023-12-29T07:31:59;11.10;99.90
10149;DHT22;5115;50.920;6.376;2023-12-29T07:34:25;11.10;99.90
10149;DHT22;5115;50.920;6.376;2023-12-29T07:36:50;11.50;99.90
10149;DHT22;5115;50.920;6.376;2023-12-29T07:39:17;11.00;99.90
10149;DHT22;5115;50.920;6.376;2023-12-29T07:41:43;10.90;99.90
10149;DHT22;5115;50.920;6.376;2023-12-29T07:44:12;10.80;99.90
10149;DHT22;5115;50.920;6.376;2023-12-29T07:46:38;10.80;99.90
10149;DHT22;5115;50.920;6.376;2023-12-29T07:49:04;10.70;99.90
10149;DHT22;5115;50.920;6.376;2023-12-29T07:51:30;10.70;99.90
10149;DHT22;5115;50.920;6.376;2023-12-29T07:53:56;10.60;99.90
10149;DHT22;5115;50.920;6.376;2023-12-29T07:56:21;10.60;99.90
10149;DHT22;5115;50.920;6.376;2023-12-29T07:58:47;10.50;99.90
10149;DHT22;5115;50.920;6.376;2023-12-29T08:01:12;10.50;99.90
10149;DHT22;5115;50.920;6.376;2023-12-29T08:03:38;10.40;99.90
10149;DHT22;5115;50.920;6.376;2023-12-29T08:06:03;11.00;99.90
10149;DHT22;5115;50.920;6.376;2023-12-29T08:08:29;10.40;99.90
10149;DHT22;5115;50.920;6.376;2023-12-29T08:10:54;10.40;99.90
10149;DHT22;5115;50.920;6.376;2023-12-29T08:13:20;10.30;99.90
10149;DHT22;5115;50.920;6.376;2023-12-29T08:15:45;10.60;99.90
10149;DHT22;5115;50.920;6.376;2023-12-29T08:18:11;10.80;99.90
10149;DHT22;5115;50.920;6.376;2023-12-29T08:20:37;10.30;99.90
10149;DHT22;5115;50.920;6.376;2023-12-29T08:23:02;10.30;99.90
10149;DHT22;5115;50.920;6.376;2023-12-29T08:25:29;10.40;99.90
10149;DHT22;5115;50.920;6.376;2023-12-29T08:27:55;10.40;99.90
10149;DHT22;5115;50.920;6.376;2023-12-29T08:30:21;10.50;99.90
10149;DHT22;5115;50.920;6.376;2023-12-29T08:32:46;10.50;99.90
10149;DHT22;5115;50.920;6.376;2023-12-29T08:35:13;10.50;99.90
10149;DHT22;5115;50.920;6.376;2023-12-29T08:37:39;10.30;99.90
10149;DHT22;5115;50.920;6.376;2023-12-29T08:40:05;10.40;99.90
10149;DHT22;5115;50.920;6.376;2023-12-29T08:42:31;10.40;99.90
10149;DHT22;5115;50.920;6.376;2023-12-29T08:44:59;10.30;99.90
10149;DHT22;5115;50.920;6.376;2023-12-29T08:47:24;10.30;99.90
10149;DHT22;5115;50.920;6.376;2023-12-29T08:49:50;10.30;99.90
10149;DHT22;5115;50.920;6.376;2023-12-29T08:52:16;10.40;99.90
10149;DHT22;5115;50.920;6.376;2023-12-29T08:54:42;10.40;99.90
10149;DHT22;5115;50.920;6.376;2023-12-29T08:57:07;10.40;99.90
10149;DHT22;5115;50.920;6.376;2023-12-29T08:59:33;10.50;99.90
10149;DHT22;5115;50.920;6.376;2023-12-29T09:01:59;10.50;99.90
10149;DHT22;5115;50.920;6.376;2023-12-29T09:04:25;10.50;99.90
10149;DHT22;5115;50.920;6.376;2023-12-29T09:06:51;10.60;99.90
10149;DHT22;5115;50.920;6.376;2023-12-29T09:09:16;10.50;99.90
10149;DHT22;5115;50.920;6.376;2023-12-29T09:11:42;10.50;99.90
10149;DHT22;5115;50.920;6.376;2023-12-29T09:14:07;10.50;99.90
10149;DHT22;5115;50.920;6.376;2023-12-29T09:16:35;10.50;99.90
10149;DHT22;5115;50.920;6.376;2023-12-29T09:19:00;10.50;99.90
10149;DHT22;5115;50.920;6.376;2023-12-29T09:21:26;10.50;99.90
10149;DHT22;5115;50.920;6.376;2023-12-29T09:23:52;10.60;99.90
10149;DHT22;5115;50.920;6.376;2023-12-29T09:26:19;10.60;99.90
10149;DHT22;5115;50.920;6.376;2023-12-29T09:28:44;10.60;99.90
10149;DHT22;5115;50.920;6.376;2023-12-29T09:31:11;10.50;99.90
10149;DHT22;5115;50.920;6.376;2023-12-29T09:33:37;10.50;99.90
10149;DHT22;5115;50.920;6.376;2023-12-29T09:36:04;10.60;99.90
10149;DHT22;5115;50.920;6.376;2023-12-29T09:38:30;10.70;99.90
10149;DHT22;5115;50.920;6.376;2023-12-29T09:40:59;11.10;99.90
10149;DHT22;5115;50.920;6.376;2023-12-29T09:43:29;11.70;99.90
10149;DHT22;5115;50.920;6.376;2023-12-29T09:45:57;11.60;99.90
10149;DHT22;5115;50.920;6.376;2023-12-29T09:48:25;11.60;99.90
10149;DHT22;5115;50.920;6.376;2023-12-29T09:50:52;11.70;99.90
10149;DHT22;5115;50.920;6.376;2023-12-29T09:53:20;11.60;99.90
10149;DHT22;5115;50.920;6.376;2023-12-29T09:55:48;11.50;99.90
10149;DHT22;5115;50.920;6.376;2023-12-29T09:58:15;11.60;99.90
10149;DHT22;5115;50.920;6.376;2023-12-29T10:00:42;12.10;99.90
10149;DHT22;5115;50.920;6.376;2023-12-29T10:03:08;12.30;99.90
10149;DHT22;5115;50.920;6.376;2023-12-29T10:05:36;12.20;99.90
10149;DHT22;5115;50.920;6.376;2023-12-29T10:08:02;12.00;99.90
10149;DHT22;5115;50.920;6.376;2023-12-29T10:10:30;11.90;99.90
10149;DHT22;5115;50.920;6.376;2023-12-29T10:12:56;11.90;99.90
10149;DHT22;5115;50.920;6.376;2023-12-29T10:15:41;12.10;99.90
10149;DHT22;5115;50.920;6.376;2023-12-29T10:18:18;12.20;99.90
10149;DHT22;5115;50.920;6.376;2023-12-29T10:21:24;12.20;99.90
10149;DHT22;5115;50.920;6.376;2023-12-29T10:23:53;12.20;99.90
10149;DHT22;5115;50.920;6.376;2023-12-29T10:26:22;12.00;99.90
10149;DHT22;5115;50.920;6.376;2023-12-29T10:28:51;11.90;99.90
10149;DHT22;5115;50.920;6.376;2023-12-29T10:31:17;11.60;99.90
10149;DHT22;5115;50.920;6.376;2023-12-29T10:33:42;11.50;99.90
10149;DHT22;5115;50.920;6.376;2023-12-29T10:36:09;11.60;99.90
10149;DHT22;5115;50.920;6.376;2023-12-29T10:38:39;11.80;99.90
10149;DHT22;5115;50.920;6.376;2023-12-29T10:41:23;12.30;99.90
10149;DHT22;5115;50.920;6.376;2023-12-29T10:43:48;13.10;99.90
10149;DHT22;5115;50.920;6.376;2023-12-29T10:46:18;13.60;99.90
10149;DHT22;5115;50.920;6.376;2023-12-29T10:48:43;13.70;99.90
10149;DHT22;5115;50.920;6.376;2023-12-29T10:51:09;13.80;99.90
10149;DHT22;5115;50.920;6.376;2023-12-29T10:53:36;13.90;99.90
10149;DHT22;5115;50.920;6.376;2023-12-29T10:56:02;14.40;99.90
10149;DHT22;5115;50.920;6.376;2023-12-29T10:58:28;14.80;99.90
10149;DHT22;5115;50.920;6.376;2023-12-29T11:00:57;14.90;99.90
10149;DHT22;5115;50.920;6.376;2023-12-29T11:03:23;14.30;99.90
10149;DHT22;5115;50.920;6.376;2023-12-29T11:05:51;13.70;99.90
10149;DHT22;5115;50.920;6.376;2023-12-29T11:08:18;13.20;99.90
10149;DHT22;5115;50.920;6.376;2023-12-29T11:10:44;12.90;99.90
10149;DHT22;5115;50.920;6.376;2023-12-29T11:13:11;13.10;99.90
10149;DHT22;5115;50.920;6.376;2023-12-29T11:15:42;12.80;99.90
10149;DHT22;5115;50.920;6.376;2023-12-29T11:18:09;12.90;99.90
10149;DHT22;5115;50.920;6.376;2023-12-29T11:20:38;13.20;99.90
10149;DHT22;5115;50.920;6.376;2023-12-29T11:23:06;13.00;99.90
10149;DHT22;5115;50.920;6.376;2023-12-29T11:25:32;13.10;99.90
10149;DHT22;5115;50.920;6.376;2023-12-29T11:27:59;13.30;99.90
10149;DHT22;5115;50.920;6.376;2023-12-29T11:30:25;13.60;99.90
10149;DHT22;5115;50.920;6.376;2023-12-29T11:33:14;13.70;99.90
10149;DHT22;5115;50.920;6.376;2023-12-29T11:35:57;13.70;99.90
10149;DHT22;5115;50.920;6.376;2023-12-29T11:41:43;13.10;99.90
10149;DHT22;5115;50.920;6.376;2023-12-29T11:44:09;12.90;99.90
10149;DHT22;5115;50.920;6.376;2023-12-29T11:46:44;12.70;99.90
10149;DHT22;5115;50.920;6.376;2023-12-29T11:49:10;12.40;99.90
10149;DHT22;5115;50.920;6.376;2023-12-29T11:51:43;12.60;99.90
10149;DHT22;5115;50.920;6.376;2023-12-29T11:54:09;12.70;99.90
10149;DHT22;5115;50.920;6.376;2023-12-29T11:56:39;12.70;99.90
10149;DHT22;5115;50.920;6.376;2023-12-29T12:01:58;12.70;99.90
10149;DHT22;5115;50.920;6.376;2023-12-29T12:04:39;12.60;99.90
10149;DHT22;5115;50.920;6.376;2023-12-29T12:12:47;12.20;99.90
10149;DHT22;5115;50.920;6.376;2023-12-29T12:17:57;12.20;99.90
10149;DHT22;5115;50.920;6.376;2023-12-29T12:20:25;12.10;99.90
10149;DHT22;5115;50.920;6.376;2023-12-29T12:23:02;12.10;99.90
10149;DHT22;5115;50.920;6.376;2023-12-29T12:25:31;12.10;99.90
10149;DHT22;5115;50.920;6.376;2023-12-29T12:28:01;12.10;99.90
10149;DHT22;5115;50.920;6.376;2023-12-29T12:30:30;12.10;99.90
10149;DHT22;5115;50.920;6.376;2023-12-29T12:32:59;12.10;99.90
10149;DHT22;5115;50.920;6.376;2023-12-29T12:35:25;12.10;99.90
10149;DHT22;5115;50.920;6.376;2023-12-29T12:38:12;12.00;99.90
10149;DHT22;5115;50.920;6.376;2023-12-29T12:40:38;12.10;99.90
10149;DHT22;5115;50.920;6.376;2023-12-29T12:43:04;12.10;99.90
10149;DHT22;5115;50.920;6.376;2023-12-29T12:45:34;12.10;99.90
10149;DHT22;5115;50.920;6.376;2023-12-29T12:48:09;12.00;99.90
10149;DHT22;5115;50.920;6.376;2023-12-29T12:50:41;12.00;99.90
10149;DHT22;5115;50.920;6.376;2023-12-29T12:53:07;11.90;99.90
10149;DHT22;5115;50.920;6.376;2023-12-29T12:55:34;11.80;99.90
10149;DHT22;5115;50.920;6.376;2023-12-29T12:58:01;11.80;99.90
10149;DHT22;5115;50.920;6.376;2023-12-29T13:00:26;11.70;99.90
10149;DHT22;5115;50.920;6.376;2023-12-29T13:02:53;11.70;99.90
10149;DHT22;5115;50.920;6.376;2023-12-29T13:05:19;11.80;99.90
10149;DHT22;5115;50.920;6.376;2023-12-29T13:07:44;11.80;99.90
10149;DHT22;5115;50.920;6.376;2023-12-29T13:10:10;11.90;99.90
10149;DHT22;5115;50.920;6.376;2023-12-29T13:12:36;11.80;99.90
10149;DHT22;5115;50.920;6.376;2023-12-29T13:15:06;11.80;99.90
10149;DHT22;5115;50.920;6.376;2023-12-29T13:17:34;11.80;99.90
10149;DHT22;5115;50.920;6.376;2023-12-29T13:20:00;11.90;99.90
10149;DHT22;5115;50.920;6.376;2023-12-29T13:22:27;11.90;99.90
10149;DHT22;5115;50.920;6.376;2023-12-29T13:24:54;11.90;99.90
10149;DHT22;5115;50.920;6.376;2023-12-29T13:27:20;12.00;99.90
10149;DHT22;5115;50.920;6.376;2023-12-29T13:29:47;12.00;99.90
10149;DHT22;5115;50.920;6.376;2023-12-29T13:32:22;11.90;99.90
10149;DHT22;5115;50.920;6.376;2023-12-29T13:35:53;11.80;99.90
10149;DHT22;5115;50.920;6.376;2023-12-29T13:38:01;11.80;99.90
10149;DHT22;5115;50.920;6.376;2023-12-29T13:40:44;11.70;99.90
10149;DHT22;5115;50.920;6.376;2023-12-29T13:43:14;11.50;99.90
10149;DHT22;5115;50.920;6.376;2023-12-29T13:45:42;11.40;99.90
10149;DHT22;5115;50.920;6.376;2023-12-29T13:48:09;11.40;99.90
10149;DHT22;5115;50.920;6.376;2023-12-29T13:50:35;11.40;99.90
10149;DHT22;5115;50.920;6.376;2023-12-29T13:53:00;11.40;99.90
10149;DHT22;5115;50.920;6.376;2023-12-29T13:55:26;11.40;99.90
10149;DHT22;5115;50.920;6.376;2023-12-29T13:57:52;11.30;99.90
10149;DHT22;5115;50.920;6.376;2023-12-29T14:00:21;11.40;99.90
10149;DHT22;5115;50.920;6.376;2023-12-29T14:06:08;11.30;99.90
10149;DHT22;5115;50.920;6.376;2023-12-29T14:08:23;11.20;99.90
10149;DHT22;5115;50.920;6.376;2023-12-29T14:10:51;11.20;99.90
10149;DHT22;5115;50.920;6.376;2023-12-29T14:13:17;11.10;99.90
10149;DHT22;5115;50.920;6.376;2023-12-29T14:15:44;11.10;99.90
10149;DHT22;5115;50.920;6.376;2023-12-29T14:20:38;11.10;99.90
10149;DHT22;5115;50.920;6.376;2023-12-29T14:23:05;11.20;99.90
10149;DHT22;5115;50.920;6.376;2023-12-29T14:25:35;11.20;99.90
10149;DHT22;5115;50.920;6.376;2023-12-29T14:28:03;11.20;99.90
10149;DHT22;5115;50.920;6.376;2023-12-29T14:30:29;11.20;99.90
10149;DHT22;5115;50.920;6.376;2023-12-29T14:32:59;11.10;99.90
10149;DHT22;5115;50.920;6.376;2023-12-29T14:35:25;11.10;99.90
10149;DHT22;5115;50.920;6.376;2023-12-29T14:37:51;11.10;99.90
10149;DHT22;5115;50.920;6.376;2023-12-29T14:40:16;11.00;99.90
10149;DHT22;5115;50.920;6.376;2023-12-29T14:42:42;11.10;99.90
10149;DHT22;5115;50.920;6.376;2023-12-29T14:45:08;11.20;99.90
10149;DHT22;5115;50.920;6.376;2023-12-29T14:47:34;11.20;99.90
10149;DHT22;5115;50.920;6.376;2023-12-29T14:50:00;11.30;99.90
10149;DHT22;5115;50.920;6.376;2023-12-29T14:52:26;11.40;99.90
10149;DHT22;5115;50.920;6.376;2023-12-29T14:54:52;11.40;99.90
10149;DHT22;5115;50.920;6.376;2023-12-29T14:57:18;11.40;99.90
10149;DHT22;5115;50.920;6.376;2023-12-29T14:59:44;11.40;99.90
10149;DHT22;5115;50.920;6.376;2023-12-29T15:02:09;11.40;99.90
10149;DHT22;5115;50.920;6.376;2023-12-29T15:04:35;11.50;99.90
10149;DHT22;5115;50.920;6.376;2023-12-29T15:07:01;11.40;99.90
10149;DHT22;5115;50.920;6.376;2023-12-29T15:09:27;11.40;99.90
10149;DHT22;5115;50.920;6.376;2023-12-29T15:11:53;12.00;99.90
10149;DHT22;5115;50.920;6.376;2023-12-29T15:14:19;11.40;99.90
10149;DHT22;5115;50.920;6.376;2023-12-29T15:16:46;11.40;99.90
10149;DHT22;5115;50.920;6.376;2023-12-29T15:19:12;11.40;99.90
10149;DHT22;5115;50.920;6.376;2023-12-29T15:21:40;11.40;99.90
10149;DHT22;5115;50.920;6.376;2023-12-29T15:24:06;11.30;99.90
10149;DHT22;5115;50.920;6.376;2023-12-29T15:26:32;11.20;99.90
10149;DHT22;5115;50.920;6.376;2023-12-29T15:28:58;11.20;99.90
10149;DHT22;5115;50.920;6.376;2023-12-29T15:31:23;11.20;99.90
10149;DHT22;5115;50.920;6.376;2023-12-29T15:33:50;10.30;99.90
10149;DHT22;5115;50.920;6.376;2023-12-29T15:36:15;11.10;99.90
10149;DHT22;5115;50.920;6.376;2023-12-29T15:38:46;11.10;99.90
10149;DHT22;5115;50.920;6.376;2023-12-29T15:41:12;11.10;99.90
10149;DHT22;5115;50.920;6.376;2023-12-29T15:43:37;11.10;99.90
10149;DHT22;5115;50.920;6.376;2023-12-29T15:46:03;11.10;99.90
10149;DHT22;5115;50.920;6.376;2023-12-29T15:48:29;11.10;99.90
10149;DHT22;5115;50.920;6.376;2023-12-29T15:50:56;11.10;99.90
10149;DHT22;5115;50.920;6.376;2023-12-29T15:53:21;11.20;99.90
10149;DHT22;5115;50.920;6.376;2023-12-29T15:55:47;11.20;99.90
10149;DHT22;5115;50.920;6.376;2023-12-29T15:58:13;11.20;99.90
10149;DHT22;5115;50.920;6.376;2023-12-29T16:00:38;11.20;99.90
10149;DHT22;5115;50.920;6.376;2023-12-29T16:03:04;11.20;99.90